sensor_id;sensor_type;location;lat;lon;timestamp;pressure;altitude;pressure_sealevel;temperature;humidity
29825;BME280;16713;52.916;12.834;2023-05-20T00:01:25;102069.59;;;8.86;72.87
29825;BME280;16713;52.916;12.834;2023-05-20T00:03:52;102075.16;;;8.59;73.16
29825;BME280;16713;52.916;12.834;2023-05-20T00:06:19;102072.13;;;8.47;72.40
29825;BME280;16713;52.916;12.834;2023-05-20T00:08:46;102067.88;;;8.54;74.20
29825;BME280;16713;52.916;12.834;2023-05-20T00:11:12;102074.41;;;8.31;74.18
29825;BME280;16713;52.916;12.834;2023-05-20T00:13:39;102081.25;;;8.56;72.72
29825;BME280;16713;52.916;12.834;2023-05-20T00:16:05;102082.13;;;8.65;73.46
29825;BME280;16713;52.916;12.834;2023-05-20T00:18:32;102084.19;;;8.46;72.93
29825;BME280;16713;52.916;12.834;2023-05-20T00:20:58;102083.72;;;8.30;74.69
29825;BME280;16713;52.916;12.834;2023-05-20T00:23:25;102089.25;;;8.66;72.98
29825;BME280;16713;52.916;12.834;2023-05-20T00:25:51;102081.63;;;8.63;74.33
29825;BME280;16713;52.916;12.834;2023-05-20T00:28:18;102078.06;;;8.27;73.73
29825;BME280;16713;52.916;12.834;2023-05-20T00:30:45;102077.25;;;8.26;74.72
29825;BME280;16713;52.916;12.834;2023-05-20T00:33:11;102073.88;;;8.29;74.02
29825;BME280;16713;52.916;12.834;2023-05-20T00:35:38;102074.03;;;8.11;74.48
29825;BME280;16713;52.916;12.834;2023-05-20T00:38:04;102081.06;;;8.52;73.95
29825;BME280;16713;52.916;12.834;2023-05-20T00:40:31;102068.97;;;8.18;73.91
29825;BME280;16713;52.916;12.834;2023-05-20T00:42:57;102076.03;;;8.05;74.28
29825;BME280;16713;52.916;12.834;2023-05-20T00:45:24;102075.84;;;8.29;75.28
29825;BME280;16713;52.916;12.834;2023-05-20T00:47:51;102075.94;;;8.24;73.68
29825;BME280;16713;52.916;12.834;2023-05-20T00:50:17;102075.63;;;8.25;74.36
29825;BME280;16713;52.916;12.834;2023-05-20T00:52:44;102068.16;;;8.04;75.85
29825;BME280;16713;52.916;12.834;2023-05-20T00:55:13;102070.69;;;8.27;75.50
29825;BME280;16713;52.916;12.834;2023-05-20T00:57:39;102074.03;;;8.24;75.38
29825;BME280;16713;52.916;12.834;2023-05-20T01:00:07;102065.63;;;7.94;75.99
29825;BME280;16713;52.916;12.834;2023-05-20T01:02:34;102067.06;;;8.05;74.89
29825;BME280;16713;52.916;12.834;2023-05-20T01:05:01;102077.94;;;8.32;75.48
29825;BME280;16713;52.916;12.834;2023-05-20T01:07:27;102065.22;;;8.14;75.64
29825;BME280;16713;52.916;12.834;2023-05-20T01:09:54;102064.28;;;8.32;74.43
29825;BME280;16713;52.916;12.834;2023-05-20T01:12:25;102059.66;;;8.05;74.62
29825;BME280;16713;52.916;12.834;2023-05-20T01:14:58;102059.56;;;7.97;76.23
29825;BME280;16713;52.916;12.834;2023-05-20T01:17:29;102066.03;;;8.01;75.03
29825;BME280;16713;52.916;12.834;2023-05-20T01:19:59;102059.94;;;8.04;75.07
29825;BME280;16713;52.916;12.834;2023-05-20T01:22:27;102062.47;;;8.14;75.20
29825;BME280;16713;52.916;12.834;2023-05-20T01:24:54;102048.22;;;7.76;75.61
29825;BME280;16713;52.916;12.834;2023-05-20T01:27:21;102041.25;;;7.84;76.86
29825;BME280;16713;52.916;12.834;2023-05-20T01:29:50;102057.63;;;8.24;74.92
29825;BME280;16713;52.916;12.834;2023-05-20T01:32:22;102045.34;;;7.81;76.02
29825;BME280;16713;52.916;12.834;2023-05-20T01:34:51;102049.66;;;7.87;76.57
29825;BME280;16713;52.916;12.834;2023-05-20T01:37:18;102053.06;;;7.93;75.94
29825;BME280;16713;52.916;12.834;2023-05-20T01:39:48;102054.50;;;7.90;75.00
29825;BME280;16713;52.916;12.834;2023-05-20T01:42:16;102043.59;;;7.90;75.54
29825;BME280;16713;52.916;12.834;2023-05-20T01:44:43;102050.13;;;7.75;77.17
29825;BME280;16713;52.916;12.834;2023-05-20T01:47:10;102044.66;;;7.75;75.93
29825;BME280;16713;52.916;12.834;2023-05-20T01:49:36;102038.00;;;7.68;76.37
29825;BME280;16713;52.916;12.834;2023-05-20T01:52:03;102047.09;;;7.91;76.97
29825;BME280;16713;52.916;12.834;2023-05-20T01:54:30;102036.16;;;7.77;75.92
29825;BME280;16713;52.916;12.834;2023-05-20T01:56:56;102045.28;;;8.00;76.30
29825;BME280;16713;52.916;12.834;2023-05-20T01:59:23;102047.16;;;7.58;77.25
29825;BME280;16713;52.916;12.834;2023-05-20T02:01:49;102043.38;;;7.87;77.85
29825;BME280;16713;52.916;12.834;2023-05-20T02:04:16;102035.94;;;7.73;77.37
29825;BME280;16713;52.916;12.834;2023-05-20T02:06:44;102033.44;;;7.77;76.85
29825;BME280;16713;52.916;12.834;2023-05-20T02:09:11;102030.69;;;7.63;78.12
29825;BME280;16713;52.916;12.834;2023-05-20T02:11:38;102023.31;;;7.64;77.75
29825;BME280;16713;52.916;12.834;2023-05-20T02:14:04;102022.50;;;7.63;77.88
29825;BME280;16713;52.916;12.834;2023-05-20T02:16:31;102034.09;;;7.55;78.53
29825;BME280;16713;52.916;12.834;2023-05-20T02:18:58;102035.31;;;7.49;78.15
29825;BME280;16713;52.916;12.834;2023-05-20T02:21:24;102043.13;;;7.56;78.14
29825;BME280;16713;52.916;12.834;2023-05-20T02:23:51;102031.47;;;7.37;78.26
29825;BME280;16713;52.916;12.834;2023-05-20T02:26:17;102043.59;;;7.44;78.72
29825;BME280;16713;52.916;12.834;2023-05-20T02:28:45;102035.63;;;7.48;79.21
29825;BME280;16713;52.916;12.834;2023-05-20T02:31:16;102037.09;;;7.27;79.01
29825;BME280;16713;52.916;12.834;2023-05-20T02:33:43;102038.03;;;7.36;78.94
29825;BME280;16713;52.916;12.834;2023-05-20T02:36:10;102027.41;;;7.34;79.03
29825;BME280;16713;52.916;12.834;2023-05-20T02:38:37;102028.09;;;7.26;79.02
29825;BME280;16713;52.916;12.834;2023-05-20T02:41:03;102029.09;;;7.17;79.69
29825;BME280;16713;52.916;12.834;2023-05-20T02:43:31;102033.84;;;7.25;79.88
29825;BME280;16713;52.916;12.834;2023-05-20T02:45:57;102030.63;;;7.23;79.29
29825;BME280;16713;52.916;12.834;2023-05-20T02:48:24;102029.13;;;7.30;78.89
29825;BME280;16713;52.916;12.834;2023-05-20T02:50:50;102030.00;;;7.12;80.20
29825;BME280;16713;52.916;12.834;2023-05-20T02:53:18;102022.31;;;7.14;80.29
29825;BME280;16713;52.916;12.834;2023-05-20T02:55:46;102024.41;;;7.36;79.70
29825;BME280;16713;52.916;12.834;2023-05-20T02:58:15;102025.34;;;7.13;79.67
29825;BME280;16713;52.916;12.834;2023-05-20T03:00:42;102020.59;;;7.18;79.31
29825;BME280;16713;52.916;12.834;2023-05-20T03:03:09;102020.31;;;7.20;80.10
29825;BME280;16713;52.916;12.834;2023-05-20T03:05:36;102014.00;;;7.51;79.26
29825;BME280;16713;52.916;12.834;2023-05-20T03:08:08;102016.03;;;7.59;78.63
29825;BME280;16713;52.916;12.834;2023-05-20T03:10:36;102020.28;;;7.65;79.73
29825;BME280;16713;52.916;12.834;2023-05-20T03:13:04;102031.06;;;7.43;79.15
29825;BME280;16713;52.916;12.834;2023-05-20T03:15:34;102028.66;;;7.55;79.66
29825;BME280;16713;52.916;12.834;2023-05-20T03:18:01;102017.44;;;7.57;79.36
29825;BME280;16713;52.916;12.834;2023-05-20T03:20:28;102018.56;;;7.69;79.33
29825;BME280;16713;52.916;12.834;2023-05-20T03:22:55;102019.97;;;7.81;79.31
29825;BME280;16713;52.916;12.834;2023-05-20T03:25:23;102027.69;;;8.06;78.31
29825;BME280;16713;52.916;12.834;2023-05-20T03:27:50;102031.03;;;8.16;78.54
29825;BME280;16713;52.916;12.834;2023-05-20T03:30:16;102019.19;;;7.94;78.00
29825;BME280;16713;52.916;12.834;2023-05-20T03:32:43;102030.09;;;8.21;77.21
29825;BME280;16713;52.916;12.834;2023-05-20T03:35:10;102035.56;;;8.21;77.59
29825;BME280;16713;52.916;12.834;2023-05-20T03:37:36;102031.44;;;7.96;78.26
29825;BME280;16713;52.916;12.834;2023-05-20T03:40:03;102031.84;;;8.39;77.03
29825;BME280;16713;52.916;12.834;2023-05-20T03:42:33;102036.69;;;8.06;77.83
29825;BME280;16713;52.916;12.834;2023-05-20T03:44:59;102037.69;;;8.10;78.48
29825;BME280;16713;52.916;12.834;2023-05-20T03:47:27;102032.00;;;8.07;78.94
29825;BME280;16713;52.916;12.834;2023-05-20T03:49:53;102045.09;;;8.10;79.11
29825;BME280;16713;52.916;12.834;2023-05-20T03:52:20;102040.00;;;8.17;79.18
29825;BME280;16713;52.916;12.834;2023-05-20T03:54:46;102046.75;;;8.46;77.43
29825;BME280;16713;52.916;12.834;2023-05-20T03:57:13;102046.50;;;8.07;79.60
29825;BME280;16713;52.916;12.834;2023-05-20T03:59:39;102051.13;;;8.34;78.59
29825;BME280;16713;52.916;12.834;2023-05-20T04:02:06;102045.94;;;8.46;79.38
29825;BME280;16713;52.916;12.834;2023-05-20T04:04:33;102047.25;;;8.48;78.40
29825;BME280;16713;52.916;12.834;2023-05-20T04:06:59;102054.47;;;8.66;78.56
29825;BME280;16713;52.916;12.834;2023-05-20T04:09:26;102057.63;;;8.60;78.36
29825;BME280;16713;52.916;12.834;2023-05-20T04:11:52;102051.69;;;8.58;79.19
29825;BME280;16713;52.916;12.834;2023-05-20T04:14:19;102054.88;;;8.95;78.57
29825;BME280;16713;52.916;12.834;2023-05-20T04:16:45;102054.94;;;8.82;79.09
29825;BME280;16713;52.916;12.834;2023-05-20T04:19:12;102050.88;;;8.44;78.13
29825;BME280;16713;52.916;12.834;2023-05-20T04:21:41;102058.66;;;8.86;78.31
29825;BME280;16713;52.916;12.834;2023-05-20T04:24:08;102054.81;;;9.09;78.04
29825;BME280;16713;52.916;12.834;2023-05-20T04:26:34;102049.50;;;8.68;78.86
29825;BME280;16713;52.916;12.834;2023-05-20T04:29:01;102053.66;;;9.24;77.93
29825;BME280;16713;52.916;12.834;2023-05-20T04:31:30;102052.03;;;9.23;77.03
29825;BME280;16713;52.916;12.834;2023-05-20T04:33:57;102057.72;;;9.57;76.59
29825;BME280;16713;52.916;12.834;2023-05-20T04:36:23;102049.72;;;9.38;76.12
29825;BME280;16713;52.916;12.834;2023-05-20T04:38:55;102053.63;;;9.46;76.95
29825;BME280;16713;52.916;12.834;2023-05-20T04:41:22;102052.41;;;9.60;75.99
29825;BME280;16713;52.916;12.834;2023-05-20T04:43:49;102051.38;;;9.78;77.31
29825;BME280;16713;52.916;12.834;2023-05-20T04:46:15;102049.28;;;9.84;76.45
29825;BME280;16713;52.916;12.834;2023-05-20T04:48:42;102060.78;;;9.94;77.67
29825;BME280;16713;52.916;12.834;2023-05-20T04:51:09;102056.06;;;9.86;76.02
29825;BME280;16713;52.916;12.834;2023-05-20T04:53:36;102056.97;;;10.21;76.92
29825;BME280;16713;52.916;12.834;2023-05-20T04:56:03;102054.56;;;10.19;75.75
29825;BME280;16713;52.916;12.834;2023-05-20T04:58:30;102053.78;;;10.36;75.44
29825;BME280;16713;52.916;12.834;2023-05-20T05:00:58;102055.22;;;10.33;75.47
29825;BME280;16713;52.916;12.834;2023-05-20T05:03:25;102056.53;;;10.36;74.36
29825;BME280;16713;52.916;12.834;2023-05-20T05:05:55;102058.75;;;10.17;75.38
29825;BME280;16713;52.916;12.834;2023-05-20T05:08:21;102065.56;;;10.36;74.77
29825;BME280;16713;52.916;12.834;2023-05-20T05:10:48;102069.66;;;10.56;74.22
29825;BME280;16713;52.916;12.834;2023-05-20T05:13:14;102064.81;;;10.79;74.98
29825;BME280;16713;52.916;12.834;2023-05-20T05:15:41;102068.84;;;10.55;74.20
29825;BME280;16713;52.916;12.834;2023-05-20T05:18:08;102068.22;;;10.59;74.17
29825;BME280;16713;52.916;12.834;2023-05-20T05:20:35;102066.09;;;10.55;74.91
29825;BME280;16713;52.916;12.834;2023-05-20T05:23:01;102074.50;;;10.93;73.83
29825;BME280;16713;52.916;12.834;2023-05-20T05:25:28;102074.69;;;10.97;74.38
29825;BME280;16713;52.916;12.834;2023-05-20T05:27:54;102073.38;;;10.86;74.28
29825;BME280;16713;52.916;12.834;2023-05-20T05:30:21;102066.13;;;10.98;74.37
29825;BME280;16713;52.916;12.834;2023-05-20T05:32:48;102071.13;;;10.96;74.56
29825;BME280;16713;52.916;12.834;2023-05-20T05:35:15;102078.50;;;11.30;73.81
29825;BME280;16713;52.916;12.834;2023-05-20T05:37:41;102070.63;;;11.11;73.60
29825;BME280;16713;52.916;12.834;2023-05-20T05:40:08;102076.06;;;11.37;73.53
29825;BME280;16713;52.916;12.834;2023-05-20T05:42:35;102083.31;;;11.50;73.06
29825;BME280;16713;52.916;12.834;2023-05-20T05:45:01;102074.09;;;11.54;72.94
29825;BME280;16713;52.916;12.834;2023-05-20T05:47:28;102078.09;;;11.57;72.95
29825;BME280;16713;52.916;12.834;2023-05-20T05:49:58;102073.06;;;11.76;73.63
29825;BME280;16713;52.916;12.834;2023-05-20T05:52:25;102071.28;;;11.80;72.92
29825;BME280;16713;52.916;12.834;2023-05-20T05:54:52;102078.56;;;11.76;73.02
29825;BME280;16713;52.916;12.834;2023-05-20T05:57:19;102076.78;;;11.80;72.66
29825;BME280;16713;52.916;12.834;2023-05-20T05:59:46;102070.66;;;11.74;72.67
29825;BME280;16713;52.916;12.834;2023-05-20T06:02:12;102069.03;;;11.82;72.18
29825;BME280;16713;52.916;12.834;2023-05-20T06:04:39;102073.69;;;11.90;72.35
29825;BME280;16713;52.916;12.834;2023-05-20T06:07:06;102078.31;;;11.60;73.30
29825;BME280;16713;52.916;12.834;2023-05-20T06:09:33;102081.88;;;11.61;72.80
29825;BME280;16713;52.916;12.834;2023-05-20T06:11:59;102081.88;;;11.61;72.80
29825;BME280;16713;52.916;12.834;2023-05-20T06:14:27;102075.75;;;11.30;73.74
29825;BME280;16713;52.916;12.834;2023-05-20T06:16:54;102083.94;;;11.64;73.11
29825;BME280;16713;52.916;12.834;2023-05-20T06:19:20;102082.06;;;11.39;73.58
29825;BME280;16713;52.916;12.834;2023-05-20T06:21:47;102082.03;;;11.64;73.35
29825;BME280;16713;52.916;12.834;2023-05-20T06:24:13;102083.47;;;11.62;73.41
29825;BME280;16713;52.916;12.834;2023-05-20T06:26:40;102082.84;;;11.48;73.26
29825;BME280;16713;52.916;12.834;2023-05-20T06:29:06;102082.88;;;11.22;74.48
29825;BME280;16713;52.916;12.834;2023-05-20T06:31:33;102085.75;;;11.51;73.52
29825;BME280;16713;52.916;12.834;2023-05-20T06:33:59;102087.84;;;11.63;74.68
29825;BME280;16713;52.916;12.834;2023-05-20T06:36:26;102088.44;;;11.77;73.72
29825;BME280;16713;52.916;12.834;2023-05-20T06:38:53;102090.63;;;11.92;73.14
29825;BME280;16713;52.916;12.834;2023-05-20T06:41:20;102079.41;;;11.68;73.95
29825;BME280;16713;52.916;12.834;2023-05-20T06:43:47;102083.13;;;11.63;73.21
29825;BME280;16713;52.916;12.834;2023-05-20T06:46:17;102079.13;;;11.61;73.03
29825;BME280;16713;52.916;12.834;2023-05-20T06:48:43;102075.81;;;11.76;73.16
29825;BME280;16713;52.916;12.834;2023-05-20T06:51:10;102069.25;;;11.51;73.17
29825;BME280;16713;52.916;12.834;2023-05-20T06:53:36;102073.19;;;11.88;73.65
29825;BME280;16713;52.916;12.834;2023-05-20T06:56:03;102078.84;;;11.91;73.04
29825;BME280;16713;52.916;12.834;2023-05-20T06:58:29;102075.53;;;11.52;73.98
29825;BME280;16713;52.916;12.834;2023-05-20T07:00:56;102086.31;;;11.82;73.04
29825;BME280;16713;52.916;12.834;2023-05-20T07:03:22;102073.72;;;11.73;73.07
29825;BME280;16713;52.916;12.834;2023-05-20T07:05:49;102068.09;;;11.69;73.10
29825;BME280;16713;52.916;12.834;2023-05-20T07:08:16;102065.47;;;11.81;72.60
29825;BME280;16713;52.916;12.834;2023-05-20T07:10:43;102074.03;;;11.80;73.08
29825;BME280;16713;52.916;12.834;2023-05-20T07:13:10;102065.31;;;11.78;72.90
29825;BME280;16713;52.916;12.834;2023-05-20T07:15:37;102069.41;;;12.01;73.05
29825;BME280;16713;52.916;12.834;2023-05-20T07:18:03;102071.66;;;12.08;72.33
29825;BME280;16713;52.916;12.834;2023-05-20T07:20:30;102070.31;;;12.14;72.44
29825;BME280;16713;52.916;12.834;2023-05-20T07:22:56;102068.66;;;12.21;71.83
29825;BME280;16713;52.916;12.834;2023-05-20T07:25:23;102073.41;;;12.12;73.09
29825;BME280;16713;52.916;12.834;2023-05-20T07:27:49;102076.53;;;12.31;72.86
29825;BME280;16713;52.916;12.834;2023-05-20T07:30:16;102070.16;;;12.10;72.71
29825;BME280;16713;52.916;12.834;2023-05-20T07:32:42;102065.38;;;11.98;72.67
29825;BME280;16713;52.916;12.834;2023-05-20T07:35:09;102072.41;;;12.17;73.95
29825;BME280;16713;52.916;12.834;2023-05-20T07:37:35;102061.78;;;11.69;72.97
29825;BME280;16713;52.916;12.834;2023-05-20T07:40:02;102071.31;;;11.71;73.68
29825;BME280;16713;52.916;12.834;2023-05-20T07:42:28;102080.41;;;12.01;72.76
29825;BME280;16713;52.916;12.834;2023-05-20T07:44:55;102078.09;;;12.12;72.66
29825;BME280;16713;52.916;12.834;2023-05-20T07:47:21;102070.31;;;12.14;72.93
29825;BME280;16713;52.916;12.834;2023-05-20T07:49:48;102076.81;;;12.09;72.76
29825;BME280;16713;52.916;12.834;2023-05-20T07:52:14;102080.31;;;12.18;71.95
29825;BME280;16713;52.916;12.834;2023-05-20T07:54:41;102074.59;;;12.32;72.28
29825;BME280;16713;52.916;12.834;2023-05-20T07:57:07;102064.59;;;12.27;71.67
29825;BME280;16713;52.916;12.834;2023-05-20T07:59:34;102065.94;;;12.42;71.16
29825;BME280;16713;52.916;12.834;2023-05-20T08:02:00;102069.50;;;12.42;71.16
29825;BME280;16713;52.916;12.834;2023-05-20T08:04:27;102064.59;;;12.48;71.51
29825;BME280;16713;52.916;12.834;2023-05-20T08:06:54;102070.31;;;12.63;72.53
29825;BME280;16713;52.916;12.834;2023-05-20T08:09:20;102079.47;;;12.76;72.56
29825;BME280;16713;52.916;12.834;2023-05-20T08:11:47;102073.25;;;12.67;72.23
29825;BME280;16713;52.916;12.834;2023-05-20T08:14:14;102076.31;;;12.86;70.83
29825;BME280;16713;52.916;12.834;2023-05-20T08:16:41;102067.84;;;12.50;70.84
29825;BME280;16713;52.916;12.834;2023-05-20T08:19:07;102079.09;;;12.57;70.71
29825;BME280;16713;52.916;12.834;2023-05-20T08:21:34;102071.88;;;12.73;70.75
29825;BME280;16713;52.916;12.834;2023-05-20T08:24:01;102070.16;;;12.60;71.50
29825;BME280;16713;52.916;12.834;2023-05-20T08:26:27;102063.16;;;12.71;70.67
29825;BME280;16713;52.916;12.834;2023-05-20T08:28:54;102058.44;;;12.51;70.93
29825;BME280;16713;52.916;12.834;2023-05-20T08:31:20;102070.19;;;12.80;71.85
29825;BME280;16713;52.916;12.834;2023-05-20T08:33:47;102070.69;;;12.82;71.47
29825;BME280;16713;52.916;12.834;2023-05-20T08:36:14;102070.97;;;12.69;71.23
29825;BME280;16713;52.916;12.834;2023-05-20T08:38:41;102066.19;;;12.78;71.99
29825;BME280;16713;52.916;12.834;2023-05-20T08:41:08;102062.28;;;12.99;71.15
29825;BME280;16713;52.916;12.834;2023-05-20T08:43:34;102077.44;;;13.05;71.22
29825;BME280;16713;52.916;12.834;2023-05-20T08:46:02;102069.72;;;12.99;71.04
29825;BME280;16713;52.916;12.834;2023-05-20T08:48:32;102069.94;;;12.94;70.85
29825;BME280;16713;52.916;12.834;2023-05-20T08:51:01;102064.38;;;13.02;70.36
29825;BME280;16713;52.916;12.834;2023-05-20T08:53:28;102056.84;;;12.91;71.70
29825;BME280;16713;52.916;12.834;2023-05-20T08:55:59;102058.78;;;12.90;70.97
29825;BME280;16713;52.916;12.834;2023-05-20T08:58:28;102044.38;;;12.64;70.76
29825;BME280;16713;52.916;12.834;2023-05-20T09:00:55;102063.81;;;13.09;70.47
29825;BME280;16713;52.916;12.834;2023-05-20T09:03:23;102068.94;;;13.31;69.80
29825;BME280;16713;52.916;12.834;2023-05-20T09:05:52;102069.50;;;13.36;71.10
29825;BME280;16713;52.916;12.834;2023-05-20T09:08:19;102070.75;;;13.27;69.99
29825;BME280;16713;52.916;12.834;2023-05-20T09:10:51;102066.47;;;13.17;68.81
29825;BME280;16713;52.916;12.834;2023-05-20T09:13:17;102066.81;;;13.49;69.14
29825;BME280;16713;52.916;12.834;2023-05-20T09:15:44;102076.25;;;13.60;69.10
29825;BME280;16713;52.916;12.834;2023-05-20T09:18:10;102067.22;;;13.71;67.84
29825;BME280;16713;52.916;12.834;2023-05-20T09:20:37;102070.91;;;13.87;69.91
29825;BME280;16713;52.916;12.834;2023-05-20T09:23:05;102067.72;;;13.97;69.07
29825;BME280;16713;52.916;12.834;2023-05-20T09:25:33;102068.03;;;13.84;68.96
29825;BME280;16713;52.916;12.834;2023-05-20T09:28:03;102065.16;;;13.80;69.36
29825;BME280;16713;52.916;12.834;2023-05-20T09:30:31;102055.47;;;13.62;68.67
29825;BME280;16713;52.916;12.834;2023-05-20T09:32:59;102052.16;;;13.93;68.61
29825;BME280;16713;52.916;12.834;2023-05-20T09:35:27;102056.91;;;14.16;69.90
29825;BME280;16713;52.916;12.834;2023-05-20T09:37:57;102054.13;;;14.16;67.95
29825;BME280;16713;52.916;12.834;2023-05-20T09:40:25;102045.88;;;13.92;67.42
29825;BME280;16713;52.916;12.834;2023-05-20T09:42:55;102054.34;;;13.99;69.31
29825;BME280;16713;52.916;12.834;2023-05-20T09:45:22;102060.09;;;14.30;66.72
29825;BME280;16713;52.916;12.834;2023-05-20T09:47:50;102059.88;;;14.23;68.39
29825;BME280;16713;52.916;12.834;2023-05-20T09:50:19;102058.16;;;14.19;68.60
29825;BME280;16713;52.916;12.834;2023-05-20T09:52:49;102050.31;;;13.85;67.06
29825;BME280;16713;52.916;12.834;2023-05-20T09:55:18;102060.56;;;13.96;67.60
29825;BME280;16713;52.916;12.834;2023-05-20T09:57:45;102068.38;;;14.30;68.21
29825;BME280;16713;52.916;12.834;2023-05-20T10:00:13;102065.97;;;14.29;69.30
29825;BME280;16713;52.916;12.834;2023-05-20T10:02:44;102060.56;;;14.32;67.30
29825;BME280;16713;52.916;12.834;2023-05-20T10:05:15;102058.38;;;14.26;67.82
29825;BME280;16713;52.916;12.834;2023-05-20T10:16:45;102048.59;;;14.40;67.36
29825;BME280;16713;52.916;12.834;2023-05-20T10:18:54;102050.53;;;14.40;66.02
29825;BME280;16713;52.916;12.834;2023-05-20T10:21:23;102055.00;;;14.44;68.61
29825;BME280;16713;52.916;12.834;2023-05-20T10:23:51;102051.31;;;14.52;69.62
29825;BME280;16713;52.916;12.834;2023-05-20T10:26:18;102054.66;;;14.58;67.97
29825;BME280;16713;52.916;12.834;2023-05-20T10:28:45;102052.25;;;14.56;67.62
29825;BME280;16713;52.916;12.834;2023-05-20T10:31:22;102036.53;;;14.09;66.62
29825;BME280;16713;52.916;12.834;2023-05-20T10:33:51;102056.72;;;14.49;67.12
29825;BME280;16713;52.916;12.834;2023-05-20T10:36:23;102051.34;;;14.40;66.71
29825;BME280;16713;52.916;12.834;2023-05-20T10:38:53;102048.00;;;14.59;67.63
29825;BME280;16713;52.916;12.834;2023-05-20T10:41:24;102030.81;;;14.02;67.17
29825;BME280;16713;52.916;12.834;2023-05-20T10:44:01;102042.94;;;14.37;67.11
29825;BME280;16713;52.916;12.834;2023-05-20T10:46:29;102037.19;;;14.30;67.28
29825;BME280;16713;52.916;12.834;2023-05-20T10:49:17;102024.25;;;14.06;66.48
29825;BME280;16713;52.916;12.834;2023-05-20T10:51:49;102032.19;;;14.20;66.39
29825;BME280;16713;52.916;12.834;2023-05-20T10:54:16;102029.75;;;14.30;67.99
29825;BME280;16713;52.916;12.834;2023-05-20T10:56:51;102031.47;;;14.23;67.78
29825;BME280;16713;52.916;12.834;2023-05-20T10:59:19;102034.44;;;14.42;66.79
29825;BME280;16713;52.916;12.834;2023-05-20T11:01:47;102019.41;;;14.15;67.80
29825;BME280;16713;52.916;12.834;2023-05-20T11:04:15;102032.38;;;14.39;66.97
29825;BME280;16713;52.916;12.834;2023-05-20T11:06:50;102037.75;;;14.59;66.92
29825;BME280;16713;52.916;12.834;2023-05-20T11:09:18;102018.22;;;14.28;67.63
29825;BME280;16713;52.916;12.834;2023-05-20T11:11:45;102021.13;;;14.71;66.87
29825;BME280;16713;52.916;12.834;2023-05-20T11:14:12;102031.34;;;14.83;66.69
29825;BME280;16713;52.916;12.834;2023-05-20T11:16:40;102012.91;;;14.47;67.79
29825;BME280;16713;52.916;12.834;2023-05-20T11:19:13;102025.72;;;14.80;66.31
29825;BME280;16713;52.916;12.834;2023-05-20T11:21:43;102017.84;;;14.66;67.96
29825;BME280;16713;52.916;12.834;2023-05-20T11:24:09;102014.28;;;14.53;66.18
29825;BME280;16713;52.916;12.834;2023-05-20T11:26:36;102023.41;;;14.82;68.09
29825;BME280;16713;52.916;12.834;2023-05-20T11:29:03;102021.16;;;14.99;65.17
29825;BME280;16713;52.916;12.834;2023-05-20T11:31:30;102018.38;;;14.99;66.59
29825;BME280;16713;52.916;12.834;2023-05-20T11:34:00;102014.78;;;14.83;65.40
29825;BME280;16713;52.916;12.834;2023-05-20T11:36:27;102003.47;;;14.88;66.32
29825;BME280;16713;52.916;12.834;2023-05-20T11:38:56;102019.03;;;15.08;65.53
29825;BME280;16713;52.916;12.834;2023-05-20T11:41:24;102019.66;;;15.02;65.64
29825;BME280;16713;52.916;12.834;2023-05-20T11:43:58;102009.13;;;15.07;66.25
29825;BME280;16713;52.916;12.834;2023-05-20T11:46:25;101991.81;;;14.95;65.29
29825;BME280;16713;52.916;12.834;2023-05-20T11:48:56;101989.03;;;14.79;66.77
29825;BME280;16713;52.916;12.834;2023-05-20T11:51:26;101991.41;;;15.08;66.50
29825;BME280;16713;52.916;12.834;2023-05-20T11:54:04;101987.84;;;15.08;64.90
29825;BME280;16713;52.916;12.834;2023-05-20T11:56:36;101995.63;;;15.18;66.50
29825;BME280;16713;52.916;12.834;2023-05-20T11:59:07;101978.94;;;15.14;65.99
29825;BME280;16713;52.916;12.834;2023-05-20T12:01:36;101982.31;;;15.23;65.58
29825;BME280;16713;52.916;12.834;2023-05-20T12:04:04;101975.50;;;15.05;65.58
29825;BME280;16713;52.916;12.834;2023-05-20T12:06:31;101990.44;;;15.32;65.97
29825;BME280;16713;52.916;12.834;2023-05-20T12:09:00;101980.81;;;15.26;66.22
29825;BME280;16713;52.916;12.834;2023-05-20T12:11:33;101981.44;;;15.19;64.72
29825;BME280;16713;52.916;12.834;2023-05-20T12:14:03;101978.06;;;15.26;65.51
29825;BME280;16713;52.916;12.834;2023-05-20T12:16:31;101980.22;;;15.32;65.90
29825;BME280;16713;52.916;12.834;2023-05-20T12:18:58;101977.69;;;15.43;66.78
29825;BME280;16713;52.916;12.834;2023-05-20T12:21:27;101959.38;;;15.07;65.75
29825;BME280;16713;52.916;12.834;2023-05-20T12:23:54;101955.84;;;15.22;66.27
29825;BME280;16713;52.916;12.834;2023-05-20T12:26:24;101954.59;;;15.20;65.14
29825;BME280;16713;52.916;12.834;2023-05-20T12:28:52;101959.13;;;15.28;65.84
29825;BME280;16713;52.916;12.834;2023-05-20T12:31:19;101940.75;;;14.89;66.00
29825;BME280;16713;52.916;12.834;2023-05-20T12:33:46;101958.16;;;15.36;66.18
29825;BME280;16713;52.916;12.834;2023-05-20T12:36:14;101957.50;;;15.54;66.68
29825;BME280;16713;52.916;12.834;2023-05-20T12:38:40;101954.97;;;15.65;66.74
29825;BME280;16713;52.916;12.834;2023-05-20T12:41:07;101964.53;;;15.67;66.52
29825;BME280;16713;52.916;12.834;2023-05-20T12:43:34;101948.53;;;15.45;66.00
29825;BME280;16713;52.916;12.834;2023-05-20T12:46:03;101949.69;;;15.60;67.23
29825;BME280;16713;52.916;12.834;2023-05-20T12:48:30;101945.75;;;15.45;66.76
29825;BME280;16713;52.916;12.834;2023-05-20T12:50:56;101936.41;;;15.19;67.44
29825;BME280;16713;52.916;12.834;2023-05-20T12:53:23;101929.00;;;15.38;65.62